createdAt,value
2023-03-16T00:01:20.478Z,23.48
2023-03-16T07:04:20.879Z,23.71
2023-03-16T09:00:25.320Z,23.96
2023-03-16T10:08:24.306Z,24.88
2023-03-16T12:44:25.847Z,25.44
2023-03-16T12:56:26.393Z,25.51
2023-03-16T13:00:26.069Z,25.51
2023-03-16T13:04:26.401Z,25.51
2023-03-16T13:08:26.357Z,25.50
2023-03-16T13:12:26.397Z,25.56
2023-03-16T13:20:31.129Z,25.58
2023-03-16T13:28:26.895Z,25.58
2023-03-16T13:40:26.428Z,25.56
2023-03-16T13:44:26.413Z,25.58
2023-03-16T13:48:26.371Z,25.58
2023-03-16T13:52:25.967Z,25.57
2023-03-16T13:56:26.379Z,25.54
2023-03-16T14:00:26.406Z,25.53
2023-03-16T14:04:26.375Z,25.53
2023-03-16T14:08:26.879Z,25.49
2023-03-16T14:12:26.892Z,25.46
2023-03-16T14:16:26.954Z,25.40
2023-03-16T14:20:26.396Z,25.41
2023-03-16T14:24:26.386Z,25.50
2023-03-16T14:28:26.201Z,25.53
2023-03-16T14:32:26.503Z,25.58
2023-03-16T14:36:26.388Z,25.64
2023-03-16T14:40:26.403Z,25.66
2023-03-16T14:44:26.393Z,25.67
2023-03-16T14:48:26.431Z,25.67
2023-03-16T14:52:26.397Z,25.71
2023-03-16T14:56:26.903Z,25.68
2023-03-16T15:00:26.501Z,25.70
2023-03-16T15:04:26.924Z,25.70
2023-03-16T15:08:26.901Z,25.70
2023-03-16T15:12:26.777Z,25.64
2023-03-16T15:16:27.414Z,25.58
2023-03-16T15:20:27.443Z,25.57
2023-03-16T15:24:27.413Z,25.51
2023-03-16T15:28:27.439Z,25.44
2023-03-16T15:44:26.851Z,25.25
2023-03-16T15:52:26.955Z,25.19
2023-03-16T15:56:26.614Z,25.13
2023-03-16T16:00:26.948Z,25.11
2023-03-16T16:04:26.555Z,25.06
2023-03-16T16:08:26.945Z,25.05
2023-03-16T16:12:26.362Z,25.02
2023-03-16T16:16:26.449Z,25.02
2023-03-16T16:20:26.443Z,25.06
2023-03-16T18:20:28.116Z,24.64
2023-03-16T18:24:28.255Z,24.63
2023-03-16T18:28:28.362Z,24.61
2023-03-16T18:32:28.649Z,24.61
2023-03-16T18:36:28.714Z,24.57
2023-03-16T18:40:29.163Z,24.57
2023-03-16T18:44:29.075Z,24.58
2023-03-16T18:48:29.282Z,24.54
2023-03-16T18:52:29.459Z,24.54
2023-03-16T18:56:29.658Z,24.51
2023-03-16T19:00:30.007Z,24.51
2023-03-16T19:04:30.116Z,24.47
2023-03-16T19:08:30.319Z,24.47
2023-03-16T19:12:30.296Z,24.46
2023-03-16T19:16:30.304Z,24.43
2023-03-16T19:20:30.318Z,24.41
2023-03-16T19:24:30.224Z,24.39
2023-03-16T19:28:30.211Z,24.39
2023-03-16T19:32:30.202Z,24.36
2023-03-16T19:36:30.503Z,24.31
2023-03-16T19:40:30.491Z,24.33
2023-03-16T19:44:30.714Z,24.29
2023-03-16T19:48:30.937Z,24.26
2023-03-16T19:52:31.291Z,24.23
2023-03-16T19:56:31.366Z,24.20
2023-03-16T20:00:31.536Z,24.20
2023-03-16T20:04:31.747Z,24.20
2023-03-16T20:08:31.883Z,24.19
2023-03-16T20:12:31.957Z,24.15
2023-03-16T20:16:32.063Z,24.13
2023-03-16T20:20:32.222Z,24.12
2023-03-16T20:24:32.307Z,24.09
2023-03-16T21:04:32.654Z,23.92
2023-03-16T21:08:32.656Z,23.89
2023-03-16T21:12:32.782Z,23.88
2023-03-16T21:16:32.731Z,23.86
2023-03-16T21:20:32.753Z,23.85
2023-03-16T21:24:32.793Z,23.84
2023-03-16T21:28:32.864Z,23.79
2023-03-16T21:32:32.919Z,23.78
